LRBM - BAIA MARE / BAIA MARE

Compiled: 17:59:32 on 20/10/2018

Latest METAR/SPECI Reports

METAR LRBM 201730Z AUTO 30003KT 5000 FEW012/// SCT150/// BKN240/// 14/11 Q1021=

Previous reports

METAR LRBM 201700Z AUTO 27003KT 5000 BR FEW010/// SCT140/// BKN240/// 14/11 Q1021=
METAR LRBM 201630Z AUTO 26004KT 5000 BR FEW012/// SCT160/// BKN240/// 14/11 Q1021=
METAR LRBM 201600Z AUTO 27004KT 6000 FEW013/// SCT130/// BKN240/// 14/11 Q1020=
METAR LRBM 201530Z AUTO 26005KT 6000 FEW009/// SCT065/// BKN210/// 15/11 Q1020=

Latest TAF report

TAF AMD LRBM 191406Z 1914/1921 CNL=

Valid WARNINGS

No valid warnings for LRBM